Home > Products > Valid Products > TAF

000
FTUS46 KOTX 291924 AAA
TAFCOE
TAF AMD
KCOE 291924Z 2919/3018 26005KT P6SM -SHRA BKN050 OVC120
     FM300100 VRB04KT P6SM SCT050 OVC140
     FM300900 06005KT P6SM BKN030 OVC050
      AMD LTD TO CLD VIS AND WIND=



000
FTUS46 KOTX 291921 AAA
TAFSFF
TAF AMD
KSFF 291921Z 2919/3018 08005KT P6SM -SHRA BKN040 OVC060
     FM300900 00000KT P6SM OVC030=



000
FTUS46 KOTX 291739
TAFMWH
TAF
KMWH 291739Z 2918/3018 09007KT P6SM VCSH SCT020 OVC050
     FM292000 13009KT P6SM VCSH BKN040 OVC070
     FM300200 14005KT P6SM BKN100
     FM300600 32006KT P6SM SCT100=



000
FTUS46 KOTX 291739
TAFCOE
TAF
KCOE 291739Z 2918/3018 VRB04KT P6SM -RA SCT018 OVC030
     FM292100 VRB04KT P6SM -SHRA BKN040 OVC060
     FM300900 06005KT P6SM BKN030 OVC050
      AMD LTD TO CLD VIS AND WIND=



000
FTUS46 KOTX 291739
TAFPUW
TAF
KPUW 291739Z 2918/3018 25008KT 6SM -RA BR SCT009 BKN014 OVC025
     FM292000 25008KT P6SM -RA BKN022 OVC040
     FM300200 26006KT P6SM -SHRA SCT025 BKN050
     FM300600 VRB03KT P6SM OVC025
     FM301000 VRB02KT 4SM BR SCT008 OVC015=



000
FTUS46 KOTX 291739
TAFGEG
TAF
KGEG 291739Z 2918/3018 18004KT P6SM -RA BKN025 OVC050
     FM292200 20006KT P6SM -SHRA BKN040 OVC060
     FM300900 VRB03KT P6SM BKN025 OVC040=



000
FTUS46 KOTX 291739
TAFEAT
TAF
KEAT 291739Z 2918/3018 30012KT P6SM OVC100
     FM292200 31016G22KT P6SM OVC100
     FM300400 30011KT P6SM SCT150=



000
FTUS46 KOTX 291739
TAFLWS
TAF
KLWS 291739Z 2918/3018 VRB04KT P6SM -RA FEW020 OVC040
     FM300100 17004KT P6SM VCSH OVC050
     FM301000 VRB02KT P6SM OVC030=



000
FTUS46 KOTX 291739
TAFSFF
TAF
KSFF 291739Z 2918/3018 14005KT P6SM -RA BKN025 OVC050
     FM292100 VRB04KT P6SM -SHRA BKN040 OVC060
     FM300900 00000KT P6SM OVC030=



000
FTUS46 KOTX 291603 AAA
TAFMWH
TAF AMD
KMWH 291603Z 2916/3012 07006KT P6SM VCSH BKN012 OVC030
     FM291700 09007KT P6SM -RA BKN025 OVC040
     FM291900 16009KT P6SM VCSH BKN040 OVC070
     FM292200 24010KT P6SM SCT070 BKN100
     FM300200 27004KT P6SM SCT100=



000
FTUS46 KOTX 291450 AAA
TAFLWS
TAF AMD
KLWS 291450Z 2915/3012 00000KT P6SM -RA BKN011 OVC045
     FM291900 31004KT P6SM -RA BKN025 OVC045
     FM292030 28006KT P6SM -RA OVC050
     FM300000 21005KT P6SM BKN060 OVC090=



000
FTUS46 KOTX 291450 AAA
TAFLWS
TAF AMD
KLWS 291450Z 2915/3012 00000KT P6SM -RA BKN011 OVC045
     FM291900 31004KT P6SM -RA BKN025 OVC045
     FM292030 28006KT P6SM -RA OVC050
     FM300000 21005KT P6SM BKN060 OVC090=



000
FTUS46 KOTX 291447 AAA
TAFPUW
TAF AMD
KPUW 291447Z 2915/3012 VRB02KT 6SM -RA BR BKN007 OVC011
     FM291830 24006KT P6SM -RA BKN010 OVC022
     FM292000 24008KT P6SM -RA BKN022 OVC040
     FM300600 VRB03KT P6SM SCT022 OVC035=



000
FTUS46 KOTX 291120
TAFCOE
TAF
KCOE 291120Z 2912/3012 00000KT P6SM BKN080
     FM291400 11004KT P6SM -RA SCT030 BKN060
     FM291700 21006KT 6SM RA BKN015 OVC025
     FM300000 15006KT P6SM -RA OVC040
     FM300400 14005KT P6SM VCSH BKN040 OVC050
      AMD LTD TO CLD VIS AND WIND=



000
FTUS46 KOTX 291120
TAFLWS
TAF
KLWS 291120Z 2912/3012 00000KT P6SM -RA BKN040 OVC050
     FM291900 VRB04KT P6SM -SHRA BKN050 BKN090
     FM300000 21005KT P6SM BKN060 OVC090=



000
FTUS46 KOTX 291120
TAFPUW
TAF
KPUW 291120Z 2912/3012 16005KT P6SM -RA BKN030 OVC050
     FM291900 24012G20KT P6SM -SHRA BKN035 OVC060
     FM300100 25008KT P6SM VCSH BKN040 OVC070
     FM300600 28003KT P6SM SCT040 BKN080=



000
FTUS46 KOTX 291120
TAFSFF
TAF
KSFF 291120Z 2912/3012 17003KT P6SM VCSH OVC080
     FM291500 08003KT P6SM -RA BKN035 OVC040
     FM291800 21005KT 6SM RA BKN025 OVC040
     FM300000 VRB03KT P6SM -SHRA SCT030 BKN040 OVC060
     FM300300 VRB02KT P6SM BKN050 OVC060=



000
FTUS46 KOTX 291120
TAFMWH
TAF
KMWH 291120Z 2912/3012 32004KT P6SM BKN090 BKN110
     FM291800 25009KT P6SM VCSH BKN060 OVC090
     FM292300 24010KT P6SM SCT070 BKN100
     FM300200 27004KT P6SM SCT100=



000
FTUS46 KOTX 291120
TAFGEG
TAF
KGEG 291120Z 2912/3012 12005KT P6SM VCSH BKN060 OVC080
     FM291500 16005KT P6SM -RA BKN030 OVC040
     FM291800 18009KT 6SM RA BKN025 OVC040
     FM300000 20006KT P6SM -SHRA BKN040 OVC060
     FM300500 22003KT P6SM SCT050 SCT100=



000
FTUS46 KOTX 291120
TAFMWH
TAF
KMWH 291120Z 2912/3012 32004KT P6SM BKN090 BKN110
     FM291800 25009KT P6SM VCSH BKN060 OVC090
     FM292300 24010KT P6SM SCT070 BKN100
     FM300200 27004KT P6SM SCT100=



000
FTUS46 KOTX 291120
TAFCOE
TAF
KCOE 291120Z 2912/3012 00000KT P6SM BKN080
     FM291400 11004KT P6SM -RA SCT030 BKN060
     FM291700 21006KT 6SM RA BKN015 OVC025
     FM300000 15006KT P6SM -RA OVC040
     FM300400 14005KT P6SM VCSH BKN040 OVC050
      AMD LTD TO CLD VIS AND WIND=



000
FTUS46 KOTX 291120
TAFSFF
TAF
KSFF 291120Z 2912/3012 17003KT P6SM VCSH OVC080
     FM291500 08003KT P6SM -RA BKN035 OVC040
     FM291800 21005KT 6SM RA BKN025 OVC040
     FM300000 VRB03KT P6SM -SHRA SCT030 BKN040 OVC060
     FM300300 VRB02KT P6SM BKN050 OVC060=



000
FTUS46 KOTX 291120
TAFEAT
TAF
KEAT 291120Z 2912/3012 33007KT P6SM SCT080 BKN120
     FM291500 30015KT P6SM OVC100
     FM292200 31018G22KT P6SM FEW080 SCT120
     FM300400 30011KT P6SM SCT150=



000
FTUS46 KOTX 291120
TAFPUW
TAF
KPUW 291120Z 2912/3012 16005KT P6SM -RA BKN030 OVC050
     FM291900 24012G20KT P6SM -SHRA BKN035 OVC060
     FM300100 25008KT P6SM VCSH BKN040 OVC070
     FM300600 28003KT P6SM SCT040 BKN080=



000
FTUS46 KOTX 291120
TAFGEG
TAF
KGEG 291120Z 2912/3012 12005KT P6SM VCSH BKN060 OVC080
     FM291500 16005KT P6SM -RA BKN030 OVC040
     FM291800 18009KT 6SM RA BKN025 OVC040
     FM300000 20006KT P6SM -SHRA BKN040 OVC060
     FM300500 22003KT P6SM SCT050 SCT100=



000
FTUS46 KOTX 291120
TAFEAT
TAF
KEAT 291120Z 2912/3012 33007KT P6SM SCT080 BKN120
     FM291500 30015KT P6SM OVC100
     FM292200 31018G22KT P6SM FEW080 SCT120
     FM300400 30011KT P6SM SCT150=



000
FTUS46 KOTX 290520
TAFCOE
TAF
KCOE 290520Z 2906/3006 07006KT P6SM -SHRA BKN080 OVC100
     FM291200 14006KT P6SM -RA SCT020 OVC030
     FM291700 21006KT 6SM RA BKN015 OVC025
     FM300000 15006KT P6SM -RA OVC040
     FM300400 14005KT P6SM -SHRA BKN040 OVC050
      AMD LTD TO CLD VIS AND WIND=



000
FTUS46 KOTX 290520
TAFPUW
TAF
KPUW 290520Z 2906/3006 07004KT P6SM VCSH BKN050 OVC080
     FM290800 16005KT P6SM -RA BKN030 OVC050
     FM291900 24012G20KT P6SM -SHRA BKN050 OVC080
     FM300100 25008KT P6SM OVC080=



000
FTUS46 KOTX 290520
TAFLWS
TAF
KLWS 290520Z 2906/3006 14003KT P6SM -SHRA BKN050 OVC080
     FM290800 00000KT P6SM -RA BKN030 OVC040
     FM291900 VRB04KT P6SM -SHRA BKN050 BKN090
     FM300000 21005KT P6SM BKN060 OVC090=



000
FTUS46 KOTX 290520
TAFGEG
TAF
KGEG 290520Z 2906/3006 12005KT P6SM VCSH BKN070 OVC080
     FM291300 16005KT P6SM -RA BKN020 OVC040
     FM292100 20009KT 6SM RA BKN025 OVC040
     FM300100 18006KT P6SM -SHRA BKN040 OVC060=



000
FTUS46 KOTX 290520
TAFSFF
TAF
KSFF 290520Z 2906/3006 07007KT P6SM VCSH BKN070 OVC090
     FM290900 05003KT P6SM -SHRA BKN050 OVC070
     FM291200 17003KT P6SM -RA BKN025 OVC040
     FM292100 21007KT 6SM RA BKN020 OVC040
     FM300300 VRB02KT P6SM BKN050 OVC060=



000
FTUS46 KOTX 290520
TAFMWH
TAF
KMWH 290520Z 2906/3006 22006KT P6SM BKN090 BKN110
     FM291800 25009KT P6SM VCSH BKN060 OVC090
     FM292300 24012KT P6SM SCT070 BKN100=



000
FTUS46 KOTX 290520
TAFEAT
TAF
KEAT 290520Z 2906/3006 31012KT P6SM OVC110
     FM290900 33007KT P6SM SCT080 BKN100
     FM291500 30015KT P6SM OVC100
     FM292300 31018G22KT P6SM SCT120=



000
FTUS46 KOTX 290329 AAA
TAFMWH
TAF AMD
KMWH 290329Z 2903/2924 34005KT P6SM VCSH BKN100
     FM290600 24005KT P6SM BKN120
     FM291800 25009KT P6SM VCSH SCT060 BKN090=



000
FTUS46 KOTX 282336
TAFEAT
TAF
KEAT 282336Z 2900/2924 30009KT P6SM BKN100
     FM290100 31012G18KT P6SM SCT120
     FM290900 33007KT P6SM SCT080 BKN100
     FM291700 30015KT P6SM OVC120=



000
FTUS46 KOTX 282336
TAFLWS
TAF
KLWS 282336Z 2900/2924 11011KT P6SM SCT060 OVC090
     FM290400 14005KT P6SM VCSH BKN060 OVC080
     FM290600 14003KT P6SM -SHRA OVC050
     FM291600 VRB03KT P6SM -RA SCT050 BKN090=



000
FTUS46 KOTX 282336
TAFSFF
TAF
KSFF 282336Z 2900/2924 12006KT P6SM BKN070 BKN150
     FM290500 05004KT P6SM -SHRA BKN060 OVC080
     FM291300 17004KT P6SM -RA BKN025 OVC040
     FM291800 21007KT P6SM -SHRA BKN040 OVC060=



000
FTUS46 KOTX 282336
TAFMWH
TAF
KMWH 282336Z 2900/2924 22006KT P6SM SCT060
     FM290600 24005KT P6SM BKN120
     FM291800 25009KT P6SM VCSH SCT060 BKN090=



000
FTUS46 KOTX 282336
TAFPUW
TAF
KPUW 282336Z 2900/2924 28008KT P6SM VCSH BKN050 OVC080
     FM290500 07004KT P6SM -SHRA BKN050 OVC080
     FM290900 26005KT P6SM -RA SCT030 OVC050
     FM291600 24009KT P6SM -SHRA SCT050 BKN090=



000
FTUS46 KOTX 282336
TAFCOE
TAF
KCOE 282336Z 2900/2924 07008KT P6SM BKN070 OVC100
     FM290400 09007KT P6SM -SHRA BKN080 OVC100
     FM290900 08006KT P6SM -RA OVC050
     FM291300 14006KT 6SM -RA BR SCT015 OVC030
     FM292000 15006KT P6SM -RA OVC040
      AMD LTD TO CLD VIS AND WIND=



000
FTUS46 KOTX 282336
TAFGEG
TAF
KGEG 282336Z 2900/2924 05009KT P6SM BKN070 BKN150
     FM290500 12005KT P6SM -SHRA BKN060 OVC080
     FM291300 16005KT P6SM -RA BKN020 OVC040
     FM291800 20010KT P6SM -SHRA BKN040 OVC060=



000
FTUS46 KOTX 282336
TAFCOE
TAF
KCOE 282336Z 2900/2924 07008KT P6SM BKN070 OVC100
     FM290400 09007KT P6SM -SHRA BKN080 OVC100
     FM290900 08006KT P6SM -RA OVC050
     FM291300 14006KT 6SM -RA BR SCT015 OVC030
     FM292000 15006KT P6SM -RA OVC040
      AMD LTD TO CLD VIS AND WIND=



000
FTUS46 KOTX 282336
TAFEAT
TAF
KEAT 282336Z 2900/2924 30009KT P6SM BKN100
     FM290100 31012G18KT P6SM SCT120
     FM290900 33007KT P6SM SCT080 BKN100
     FM291700 30015KT P6SM OVC120=



000
FTUS46 KOTX 282336
TAFPUW
TAF
KPUW 282336Z 2900/2924 28008KT P6SM VCSH BKN050 OVC080
     FM290500 07004KT P6SM -SHRA BKN050 OVC080
     FM290900 26005KT P6SM -RA SCT030 OVC050
     FM291600 24009KT P6SM -SHRA SCT050 BKN090=



000
FTUS46 KOTX 282336
TAFMWH
TAF
KMWH 282336Z 2900/2924 22006KT P6SM SCT060
     FM290600 24005KT P6SM BKN120
     FM291800 25009KT P6SM VCSH SCT060 BKN090=



000
FTUS46 KOTX 282336
TAFSFF
TAF
KSFF 282336Z 2900/2924 12006KT P6SM BKN070 BKN150
     FM290500 05004KT P6SM -SHRA BKN060 OVC080
     FM291300 17004KT P6SM -RA BKN025 OVC040
     FM291800 21007KT P6SM -SHRA BKN040 OVC060=



000
FTUS46 KOTX 282336
TAFLWS
TAF
KLWS 282336Z 2900/2924 11011KT P6SM SCT060 OVC090
     FM290400 14005KT P6SM VCSH BKN060 OVC080
     FM290600 14003KT P6SM -SHRA OVC050
     FM291600 VRB03KT P6SM -RA SCT050 BKN090=



000
FTUS46 KOTX 282336
TAFGEG
TAF
KGEG 282336Z 2900/2924 05009KT P6SM BKN070 BKN150
     FM290500 12005KT P6SM -SHRA BKN060 OVC080
     FM291300 16005KT P6SM -RA BKN020 OVC040
     FM291800 20010KT P6SM -SHRA BKN040 OVC060=



000
FTUS46 KOTX 281804 AAA
TAFPUW
TAF AMD
KPUW 281804Z 2818/2918 29007KT P6SM BKN030
     FM281930 28007KT P6SM BKN040
     FM282100 27007KT P6SM SCT060 BKN200
     FM290000 28008KT P6SM VCSH BKN050 OVC200
     FM290500 07004KT P6SM -SHRA BKN060 OVC080
     FM291000 26008KT P6SM -RA OVC030=



000
FTUS46 KOTX 281744 CCA
TAFEAT
TAF COR
KEAT 281744Z 2818/2918 30009KT P6SM FEW100
     FM290100 31012G18KT P6SM SCT120
     FM290800 33009KT P6SM SCT100 BKN200=



000
FTUS46 KOTX 281741 CCA
TAFMWH
TAF COR
KMWH 281741Z 2818/2918 22006KT P6SM FEW080 SCT200
     FM290600 28005KT P6SM SCT120
     FM291500 25005KT P6SM BKN100=



000
FTUS46 KOTX 281739
TAFPUW
TAF
KPUW 281739Z 2818/2918 29007KT P6SM SCT050 BKN200
     FM282100 27007KT P6SM SCT060 BKN200
     FM290000 28008KT P6SM VCSH BKN050 OVC200
     FM290500 07004KT P6SM -SHRA BKN060 OVC080
     FM291000 26008KT P6SM -RA OVC030=



000
FTUS46 KOTX 281739
TAFEAT
TAF
KEAT 281739Z 2818/2918 27006KT P6SM FEW100
     FM290100 31012KT P6SM FEW150
     FM290900 33008KT P6SM SCT070 BKN100=



000
FTUS46 KOTX 281739
TAFMWH
TAF
KMWH 281739Z 2818/2918 22006KT P6SM FEW080 SCT200=



000
FTUS46 KOTX 281739
TAFCOE
TAF
KCOE 281739Z 2818/2918 02008KT P6SM FEW070 BKN200
     FM282100 03010KT P6SM BKN070 OVC200
     FM290200 09007KT P6SM -SHRA BKN080 OVC120
     FM290900 09005KT P6SM -RA OVC060
     FM291300 14006KT 6SM -RA BR OVC025
      AMD LTD TO CLD VIS AND WIND=



000
FTUS46 KOTX 281739
TAFSFF
TAF
KSFF 281739Z 2818/2918 10007KT P6SM FEW070
     FM282100 12006KT P6SM SCT080 BKN120
     FM290500 05004KT P6SM -SHRA BKN060 OVC080
     FM291300 17004KT P6SM -RA BKN025 OVC040=



000
FTUS46 KOTX 281739
TAFGEG
TAF
KGEG 281739Z 2818/2918 05004KT P6SM SCT070
     FM282100 05007KT P6SM SCT080 BKN120
     FM290500 12005KT P6SM -SHRA BKN060 OVC080
     FM291300 16005KT P6SM -RA BKN020 OVC040=



000
FTUS46 KOTX 281739
TAFLWS
TAF
KLWS 281739Z 2818/2918 30009KT P6SM SCT100 BKN200
     FM290400 14005KT P6SM VCSH BKN050 OVC080
     FM291000 14003KT P6SM -RA SCT030 OVC050=



000
FTUS46 KOTX 281739
TAFLWS
TAF
KLWS 281739Z 2818/2918 30009KT P6SM SCT100 BKN200
     FM290400 14005KT P6SM VCSH BKN050 OVC080
     FM291000 14003KT P6SM -RA SCT030 OVC050=



000
FTUS46 KOTX 281739
TAFPUW
TAF
KPUW 281739Z 2818/2918 29007KT P6SM SCT050 BKN200
     FM282100 27007KT P6SM SCT060 BKN200
     FM290000 28008KT P6SM VCSH BKN050 OVC200
     FM290500 07004KT P6SM -SHRA BKN060 OVC080
     FM291000 26008KT P6SM -RA OVC030=



000
FTUS46 KOTX 281739
TAFCOE
TAF
KCOE 281739Z 2818/2918 02008KT P6SM FEW070 BKN200
     FM282100 03010KT P6SM BKN070 OVC200
     FM290200 09007KT P6SM -SHRA BKN080 OVC120
     FM290900 09005KT P6SM -RA OVC060
     FM291300 14006KT 6SM -RA BR OVC025
      AMD LTD TO CLD VIS AND WIND=



000
FTUS46 KOTX 281739
TAFMWH
TAF
KMWH 281739Z 2818/2918 22006KT P6SM FEW080 SCT200=



000
FTUS46 KOTX 281739
TAFGEG
TAF
KGEG 281739Z 2818/2918 05004KT P6SM SCT070
     FM282100 05007KT P6SM SCT080 BKN120
     FM290500 12005KT P6SM -SHRA BKN060 OVC080
     FM291300 16005KT P6SM -RA BKN020 OVC040=



000
FTUS46 KOTX 281739
TAFEAT
TAF
KEAT 281739Z 2818/2918 27006KT P6SM FEW100
     FM290100 31012KT P6SM FEW150
     FM290900 33008KT P6SM SCT070 BKN100=



000
FTUS46 KOTX 281739
TAFSFF
TAF
KSFF 281739Z 2818/2918 10007KT P6SM FEW070
     FM282100 12006KT P6SM SCT080 BKN120
     FM290500 05004KT P6SM -SHRA BKN060 OVC080
     FM291300 17004KT P6SM -RA BKN025 OVC040=



000
FTUS46 KOTX 281127
TAFEAT
TAF
KEAT 281127Z 2812/2912 32011KT P6SM SCT090
     FM281800 27006KT P6SM FEW100
     FM290100 31012KT P6SM FEW150
     FM290900 33008KT P6SM SCT070 BKN100=



000
FTUS46 KOTX 281127
TAFLWS
TAF
KLWS 281127Z 2812/2912 28005KT P6SM BKN050 OVC120
     FM282100 31007KT P6SM SCT050 BKN100
     FM290000 VRB05KT P6SM VCSH BKN050 OVC080
     FM291000 14002KT P6SM -SHRA BKN040 OVC060=



000
FTUS46 KOTX 281127
TAFMWH
TAF
KMWH 281127Z 2812/2912 VRB03KT P6SM SCT100
     FM281800 22006KT P6SM FEW080 BKN100=



000
FTUS46 KOTX 281127
TAFGEG
TAF
KGEG 281127Z 2812/2912 09004KT P6SM BKN100
     FM282100 08007KT P6SM SCT080 BKN120
     FM290000 12005KT P6SM VCSH SCT060 OVC090
     FM291000 13004KT P6SM -SHRA SCT040 BKN060 OVC080=



000
FTUS46 KOTX 281127
TAFCOE
TAF
KCOE 281127Z 2812/2912 05007KT P6SM OVC120
     FM281800 04008KT P6SM SCT070 BKN100
     FM282100 04010KT P6SM VCSH BKN050 OVC100
     FM290600 08006KT P6SM -SHRA BKN035 OVC050
      AMD LTD TO CLD VIS AND WIND=



000
FTUS46 KOTX 281127
TAFSFF
TAF
KSFF 281127Z 2812/2912 00000KT P6SM OVC120
     FM282100 06004KT P6SM SCT080 BKN120
     FM290000 10004KT P6SM VCSH SCT050 OVC090
     FM291000 03002KT P6SM -SHRA SCT040 OVC060=



000
FTUS46 KOTX 281127
TAFPUW
TAF
KPUW 281127Z 2812/2912 00000KT P6SM OVC110
     FM282100 26007KT P6SM SCT060 BKN100
     FM290000 28008KT P6SM VCSH BKN050 OVC090
     FM290600 06004KT P6SM -SHRA BKN040 OVC080=



000
FTUS46 KOTX 280536
TAFSFF
TAF
KSFF 280536Z 2806/2906 VRB02KT P6SM SCT120
     FM282100 06004KT P6SM SCT080 BKN120
     FM290000 05004KT P6SM VCSH SCT050 OVC090=



000
FTUS46 KOTX 280536
TAFPUW
TAF
KPUW 280536Z 2806/2906 29004KT P6SM SCT080 OVC100
     FM281200 VRB02KT P6SM SCT100
     FM282100 26007KT P6SM SCT060 BKN100
     FM290000 28008KT P6SM VCSH BKN050 OVC090=



000
FTUS46 KOTX 280536
TAFLWS
TAF
KLWS 280536Z 2806/2906 25005KT P6SM BKN060 OVC100
     FM281200 VRB03KT P6SM SCT100
     FM282100 31007KT P6SM SCT050 BKN100
     FM290000 VRB05KT P6SM VCSH BKN050 OVC080=



000
FTUS46 KOTX 280536
TAFCOE
TAF
KCOE 280536Z 2806/2906 05006KT P6SM SCT070 BKN090
     FM281800 04008KT P6SM SCT070 BKN100
     FM282100 04010KT P6SM VCSH BKN050 OVC100
     FM290300 06006KT P6SM BKN050 OVC100
      AMD LTD TO CLD VIS AND WIND=



000
FTUS46 KOTX 280536
TAFMWH
TAF
KMWH 280536Z 2806/2906 29006KT P6SM SCT070 SCT120
     FM281800 02005KT P6SM FEW080
     FM290000 21007KT P6SM SCT100 BKN150=



000
FTUS46 KOTX 280536
TAFGEG
TAF
KGEG 280536Z 2806/2906 03004KT P6SM SCT100
     FM281000 08004KT P6SM SCT120
     FM282100 03007KT P6SM SCT080 BKN120
     FM290000 03007KT P6SM VCSH SCT060 OVC090=



000
FTUS46 KOTX 280536
TAFEAT
TAF
KEAT 280536Z 2806/2906 32009KT P6SM OVC090
     FM281800 27006KT P6SM FEW100
     FM290100 31011KT P6SM FEW150=



000
FTUS46 KOTX 272343 AAA
TAFMWH
TAF AMD
KMWH 272343Z 2800/2824 25006KT P6SM BKN070
     FM280300 29006KT P6SM SCT150
     FM280900 34004KT P6SM SCT150
     FM281600 02004KT P6SM BKN080=



000
FTUS46 KOTX 272343 AAA
TAFLWS
TAF AMD
KLWS 272343Z 2800/2824 28008G15KT P6SM BKN070
     FM280200 25005KT P6SM BKN080
     FM280600 17003KT P6SM BKN100
     FM281500 VRB03KT P6SM SCT050=



000
FTUS46 KOTX 272343 AAB
TAFSFF
TAF AMD
KSFF 272343Z 2800/2824 07008G15KT P6SM -SHRA BKN060 BKN120
     FM280130 26006KT P6SM SCT060 BKN100
     FM280300 01003KT P6SM BKN120
     FM281000 05003KT P6SM BKN120
     FM281800 06004KT P6SM SCT120=



000
FTUS46 KOTX 272343 AAA
TAFEAT
TAF AMD
KEAT 272343Z 2800/2824 05007KT P6SM OVC070
     FM280300 32009KT P6SM SCT070
     FM281200 31010KT P6SM BKN080=



000
FTUS46 KOTX 272343 AAC
TAFGEG
TAF AMD
KGEG 272343Z 2800/2824 04006KT P6SM -SHRA BKN070 BKN120
      TEMPO 2800/2801 09015G25KT -TSRAGS BKN060CB
     FM280400 03004KT P6SM BKN100
     FM281000 08004KT P6SM BKN120
     FM281800 05006KT P6SM SCT120=



000
FTUS46 KOTX 272343 AAA
TAFPUW
TAF AMD
KPUW 272343Z 2800/2824 29010G18KT P6SM SCT060
     FM280400 29004KT P6SM BKN080
     FM280800 VRB02KT P6SM SCT100
     FM281800 26006KT P6SM SCT050 BKN100=



000
FTUS46 KOTX 272343 AAA
TAFCOE
TAF AMD
KCOE 272343Z 2800/2824 09012G16KT P6SM VCSH BKN050 BKN110
     FM280200 05006KT P6SM BKN090
     FM281500 04009KT P6SM SCT120
     FM282100 04010KT P6SM BKN070 OVC120
      AMD LTD TO CLD VIS AND WIND=



000
FTUS46 KOTX 272238 AAB
TAFGEG
TAF AMD
KGEG 272238Z 2723/2818 27007KT P6SM -SHRA SCT070 BKN130
      TEMPO 2723/2801 09015G25KT TSRAGS BKN060CB
     FM280300 03005KT P6SM BKN100
     FM281000 10006KT P6SM SCT100=



000
FTUS46 KOTX 272236 AAA
TAFGEG
TAF AMD
KGEG 272236Z 2723/2818 27007KT P6SM -SHRA SCT070 BKN130
      TEMPO 2723/2801 TSRAGS BKN060CB
     FM280300 03005KT P6SM BKN100
     FM281000 10006KT P6SM SCT100=



000
FTUS46 KOTX 272158 AAA
TAFSFF
TAF AMD
KSFF 272158Z 2722/2818 26005KT P6SM VCTS SCT060CB BKN100
      TEMPO 2722/2723 09018G26KT
     FM280100 26006KT P6SM VCSH SCT060 BKN100
     FM280300 VRB03KT P6SM BKN090
     FM281000 04003KT P6SM SCT100=



000
FTUS46 KOTX 271743 CCA
TAFEAT
TAF COR
KEAT 271743Z 2718/2818 31007KT P6SM SCT080 BKN200
     FM281200 31011KT P6SM SCT150=



000
FTUS46 KOTX 271739
TAFEAT
TAF
KEAT 271739Z 2718/2818 32010KT P6SM BKN080
     FM272100 26007KT P6SM BKN080 BKN150
     FM280200 31009KT P6SM BKN100=



000
FTUS46 KOTX 271739
TAFPUW
TAF
KPUW 271739Z 2718/2818 29010G18KT P6SM FEW060
     FM272100 29009KT P6SM SCT060
     FM280400 29004KT P6SM BKN080
     FM280800 VRB03KT P6SM SCT100=



000
FTUS46 KOTX 271739
TAFMWH
TAF
KMWH 271739Z 2718/2818 15006KT P6SM VCSH SCT070 BKN100
     FM272200 17006KT P6SM BKN120
     FM280300 29006KT P6SM BKN150
     FM280900 34004KT P6SM SCT100 BKN150=



000
FTUS46 KOTX 271739
TAFCOE
TAF
KCOE 271739Z 2718/2818 05006KT P6SM SCT050 BKN090
     FM272100 01007KT P6SM -SHRA BKN050 OVC090
     FM280200 05006KT P6SM BKN090
      AMD LTD TO CLD VIS AND WIND=



000
FTUS46 KOTX 271739
TAFGEG
TAF
KGEG 271739Z 2718/2818 24005KT P6SM SCT050 BKN090
     FM272100 27007KT P6SM VCSH BKN060 BKN100
     FM280300 03005KT P6SM BKN100
     FM281000 10006KT P6SM SCT100=



000
FTUS46 KOTX 271739
TAFSFF
TAF
KSFF 271739Z 2718/2818 24005KT P6SM SCT050 BKN090
     FM272100 26005KT P6SM VCSH BKN060 BKN100
     FM280300 VRB03KT P6SM BKN090
     FM281000 04003KT P6SM SCT100=



000
FTUS46 KOTX 271739
TAFLWS
TAF
KLWS 271739Z 2718/2818 28008KT P6SM SCT070
     FM280200 25005KT P6SM BKN080
     FM280600 17003KT P6SM SCT100=



000
FTUS46 KOTX 271125
TAFSFF
TAF
KSFF 271125Z 2712/2812 VRB02KT P6SM BKN080
     FM272100 22004KT P6SM VCSH BKN070 BKN120
     FM280600 35003KT P6SM BKN090=



000
FTUS46 KOTX 271125
TAFLWS
TAF
KLWS 271125Z 2712/2812 VRB03KT P6SM OVC100
     FM271800 31006KT P6SM BKN060 OVC100
     FM280200 25005KT P6SM BKN080
     FM280600 15003KT P6SM SCT090 SCT150=



000
FTUS46 KOTX 271125
TAFGEG
TAF
KGEG 271125Z 2712/2812 20005KT P6SM BKN080
     FM272100 24007KT P6SM VCSH BKN060 BKN120
     FM280600 01004KT P6SM BKN080=



000
FTUS46 KOTX 271125
TAFEAT
TAF
KEAT 271125Z 2712/2812 32010KT P6SM BKN080
     FM272100 26007KT P6SM BKN080 BKN150
     FM280200 31009KT P6SM BKN100=



000
FTUS46 KOTX 271125
TAFMWH
TAF
KMWH 271125Z 2712/2812 18005KT P6SM BKN080 OVC100
     FM271700 21006KT P6SM FEW060 OVC080
     FM280200 25006KT P6SM SCT070 BKN100
     FM280800 31004KT P6SM SCT080 BKN150=



000
FTUS46 KOTX 271125
TAFCOE
TAF
KCOE 271125Z 2712/2812 05005KT P6SM SCT080 BKN100 BKN200
     FM272100 05007KT P6SM -SHRA BKN040 OVC070
     FM280100 05004KT P6SM BKN060
      AMD LTD TO CLD VIS AND WIND=



000
FTUS46 KOTX 271125
TAFPUW
TAF
KPUW 271125Z 2712/2812 VRB02KT P6SM OVC090
     FM271600 25006KT P6SM OVC060
     FM280000 26008KT P6SM SCT060 OVC100
     FM280600 03002KT P6SM SCT050 BKN080=



000
FTUS46 KOTX 270539
TAFLWS
TAF
KLWS 270539Z 2706/2806 VRB03KT P6SM OVC100
     FM271600 31006KT P6SM BKN060 OVC100
     FM280200 25004KT P6SM BKN080=



000
FTUS46 KOTX 270539
TAFPUW
TAF
KPUW 270539Z 2706/2806 VRB02KT P6SM OVC090
     FM271600 25005KT P6SM OVC060
     FM280000 26008KT P6SM OVC100=



000
FTUS46 KOTX 270539
TAFCOE
TAF
KCOE 270539Z 2706/2806 12003KT P6SM BKN100 BKN200
     FM272100 03005KT P6SM -SHRA BKN040 OVC070
     FM280100 05004KT P6SM BKN060
      AMD LTD TO CLD VIS AND WIND=



000
FTUS46 KOTX 270539
TAFGEG
TAF
KGEG 270539Z 2706/2806 22007KT P6SM FEW070 BKN100 BKN250
     FM270900 18005KT P6SM BKN070
     FM272100 24007KT P6SM VCSH BKN070 BKN120
     FM280300 VRB04KT P6SM BKN080=



000
FTUS46 KOTX 270539
TAFSFF
TAF
KSFF 270539Z 2706/2806 00000KT P6SM SCT100 BKN250
     FM270900 VRB02KT P6SM BKN080
     FM272100 VRB04KT P6SM VCSH BKN070 BKN120
     FM280300 VRB03KT P6SM BKN090=



000
FTUS46 KOTX 270539
TAFMWH
TAF
KMWH 270539Z 2706/2806 18005KT P6SM OVC100
     FM271700 21006KT P6SM BKN080 BKN150
     FM280200 22006KT P6SM BKN100=



000
FTUS46 KOTX 270539
TAFEAT
TAF
KEAT 270539Z 2706/2806 31008KT P6SM SCT080
     FM271000 32006KT P6SM SCT050 BKN080
     FM272100 VRB04KT P6SM BKN080 BKN150
     FM280200 31004KT P6SM BKN100=



000
FTUS46 KOTX 262337
TAFPUW
TAF
KPUW 262337Z 2700/2724 28008KT P6SM BKN250
     FM270700 VRB02KT P6SM BKN100
     FM271700 30007KT P6SM BKN060 BKN150=



000
FTUS46 KOTX 262337
TAFEAT
TAF
KEAT 262337Z 2700/2724 15005KT P6SM SCT080
     FM270400 30008KT P6SM SCT080
     FM271000 32006KT P6SM BKN080
     FM271700 27004KT P6SM BKN080 BKN150=



000
FTUS46 KOTX 262337
TAFSFF
TAF
KSFF 262337Z 2700/2724 VRB04KT P6SM SCT070 BKN100 BKN250
     FM270700 VRB02KT P6SM OVC080
     FM272100 24005KT P6SM BKN080 BKN120=



000
FTUS46 KOTX 262337
TAFCOE
TAF
KCOE 262337Z 2700/2724 24006G12KT P6SM SCT070
     FM270400 16005KT P6SM BKN100 BKN200
     FM272100 26006KT P6SM BKN070 BKN150
      AMD LTD TO CLD VIS AND WIND=



000
FTUS46 KOTX 262337
TAFLWS
TAF
KLWS 262337Z 2700/2724 VRB04KT P6SM FEW090
     FM270800 VRB02KT P6SM BKN080
     FM271700 32006KT P6SM BKN080 BKN150=



000
FTUS46 KOTX 262337
TAFGEG
TAF
KGEG 262337Z 2700/2724 21007KT P6SM FEW060 BKN100 BKN250
     FM270700 18005KT P6SM OVC070
     FM272100 24007KT P6SM BKN070 BKN120=



000
FTUS46 KOTX 262337
TAFMWH
TAF
KMWH 262337Z 2700/2724 20007KT P6SM FEW090 BKN200
     FM270900 29005KT P6SM SCT100
     FM271900 18006KT P6SM BKN080 BKN150=



    US Dept of Commerce
    National Oceanic and Atmospheric Administration
    National Weather Service
    1325 East West Highway
    Silver Spring, MD 20910
    Page Author: NWS Internet Services Team
Disclaimer
Information Quality
Credits
Glossary
Privacy Policy
Freedom of Information Act (FOIA)
About Us
Career Opportunities